createdAt,value
2023-05-06T00:02:06.268Z,101715.00
2023-05-06T00:04:33.368Z,101719.28
2023-05-06T00:06:59.961Z,101722.00
2023-05-06T00:09:26.556Z,101716.91
2023-05-06T00:11:53.000Z,101721.75
2023-05-06T00:14:19.637Z,101712.25
2023-05-06T00:16:46.043Z,101715.88
2023-05-06T00:19:12.541Z,101712.72
2023-05-06T00:21:39.114Z,101711.78
2023-05-06T00:24:05.885Z,101706.09
2023-05-06T00:26:32.442Z,101711.13
2023-05-06T00:28:59.022Z,101708.97
2023-05-06T00:31:25.531Z,101704.16
2023-05-06T00:33:51.998Z,101706.53
2023-05-06T00:36:18.686Z,101710.03
2023-05-06T00:38:45.210Z,101702.03
2023-05-06T00:41:11.559Z,101703.75
2023-05-06T00:43:38.123Z,101698.78
2023-05-06T00:46:05.461Z,101701.38
2023-05-06T00:48:32.312Z,101697.53
2023-05-06T00:50:58.887Z,101703.41
2023-05-06T00:53:25.313Z,101701.94
2023-05-06T00:55:51.918Z,101704.66
2023-05-06T00:58:20.142Z,101702.72
2023-05-06T01:00:46.936Z,101701.28
2023-05-06T01:03:13.458Z,101701.28
2023-05-06T01:06:01.731Z,101694.47
2023-05-06T01:09:08.723Z,101693.56
2023-05-06T01:11:45.852Z,101694.47
2023-05-06T01:14:26.340Z,101685.22
2023-05-06T01:16:55.096Z,101685.44
2023-05-06T01:19:42.046Z,101683.06
2023-05-06T01:22:10.494Z,101688.38
2023-05-06T01:24:41.825Z,101689.03
2023-05-06T01:27:09.409Z,101683.81
2023-05-06T01:29:37.907Z,101685.28
2023-05-06T01:32:19.232Z,101686.28
2023-05-06T01:34:49.512Z,101681.84
2023-05-06T01:37:34.653Z,101680.94
2023-05-06T01:40:04.082Z,101683.53
2023-05-06T01:42:32.375Z,101675.28
2023-05-06T01:45:03.037Z,101672.13
2023-05-06T01:47:30.246Z,101677.41
2023-05-06T01:49:57.676Z,101681.22
2023-05-06T01:52:26.006Z,101679.19
2023-05-06T01:54:52.388Z,101684.13
2023-05-06T01:57:18.880Z,101684.34
2023-05-06T01:59:45.239Z,101687.69
2023-05-06T02:02:11.668Z,101687.25
2023-05-06T02:04:38.080Z,101691.94
2023-05-06T02:07:04.908Z,101684.66
2023-05-06T02:09:31.437Z,101685.06
2023-05-06T02:11:57.881Z,101678.75
2023-05-06T02:14:24.525Z,101693.53
2023-05-06T02:16:51.217Z,101691.59
2023-05-06T02:19:17.877Z,101697.03
2023-05-06T02:21:44.274Z,101707.38
2023-05-06T02:24:10.678Z,101701.38
2023-05-06T02:26:37.196Z,101705.06
2023-05-06T02:29:03.816Z,101704.91
2023-05-06T02:31:30.795Z,101692.84
2023-05-06T02:33:57.492Z,101702.06
2023-05-06T02:36:24.092Z,101700.34
2023-05-06T02:38:50.566Z,101699.09
2023-05-06T02:41:17.140Z,101692.41
2023-05-06T02:43:43.807Z,101697.03
2023-05-06T02:46:10.508Z,101697.81
2023-05-06T02:48:36.928Z,101696.91
2023-05-06T02:51:03.488Z,101695.97
2023-05-06T02:53:29.991Z,101690.88
2023-05-06T02:55:56.505Z,101686.72
2023-05-06T02:58:23.094Z,101701.50
2023-05-06T03:00:49.649Z,101699.13
2023-05-06T03:03:17.517Z,101699.31
2023-05-06T03:05:44.001Z,101698.03
2023-05-06T03:08:10.555Z,101694.09
2023-05-06T03:10:36.964Z,101694.09
2023-05-06T03:13:03.578Z,101690.09
2023-05-06T03:15:30.295Z,101690.78
2023-05-06T03:17:56.928Z,101689.50
2023-05-06T03:20:23.478Z,101684.75
2023-05-06T03:22:50.193Z,101686.06
2023-05-06T03:25:16.610Z,101687.00
2023-05-06T03:27:43.043Z,101686.53
2023-05-06T03:30:10.387Z,101682.59
2023-05-06T03:32:37.868Z,101682.44
2023-05-06T03:35:04.787Z,101683.88
2023-05-06T03:37:31.246Z,101692.44
2023-05-06T03:39:57.605Z,101679.09
2023-05-06T03:42:24.239Z,101688.38
2023-05-06T03:44:50.670Z,101689.34
2023-05-06T03:47:17.272Z,101696.81
2023-05-06T03:49:43.653Z,101695.84
2023-05-06T03:52:10.115Z,101698.84
2023-05-06T03:54:36.833Z,101696.00
2023-05-06T03:57:03.349Z,101691.41
2023-05-06T03:59:29.925Z,101693.78
2023-05-06T04:01:56.587Z,101700.31
2023-05-06T04:04:23.248Z,101691.59
2023-05-06T04:06:49.615Z,101689.03
2023-05-06T04:09:16.098Z,101697.13
2023-05-06T04:11:42.543Z,101702.19
2023-05-06T04:14:08.962Z,101692.81
2023-05-06T04:16:36.038Z,101692.50
2023-05-06T04:19:06.250Z,101681.69
2023-05-06T04:21:33.211Z,101686.78
2023-05-06T04:23:59.635Z,101687.72
2023-05-06T04:26:26.152Z,101684.84
2023-05-06T04:28:52.661Z,101686.13
2023-05-06T04:31:19.311Z,101691.97
2023-05-06T04:33:45.873Z,101687.19
2023-05-06T04:36:12.926Z,101696.56
2023-05-06T04:38:39.332Z,101702.91
2023-05-06T04:41:05.759Z,101709.25
2023-05-06T04:43:32.951Z,101712.44
2023-05-06T04:45:59.525Z,101714.47
2023-05-06T04:48:26.305Z,101713.06
2023-05-06T04:50:52.963Z,101715.44
2023-05-06T04:53:19.396Z,101717.31
2023-05-06T04:55:45.819Z,101718.06
2023-05-06T04:58:12.263Z,101722.31
2023-05-06T05:00:38.898Z,101723.25
2023-05-06T05:03:05.606Z,101729.72
2023-05-06T05:05:33.204Z,101727.59
2023-05-06T05:07:59.911Z,101740.59
2023-05-06T05:10:26.476Z,101740.53
2023-05-06T05:12:52.946Z,101739.00
2023-05-06T05:15:21.033Z,101733.78
2023-05-06T05:17:47.913Z,101742.34
2023-05-06T05:20:14.434Z,101744.91
2023-05-06T05:22:41.238Z,101740.88
2023-05-06T05:25:08.609Z,101735.66
2023-05-06T05:27:35.363Z,101745.69
2023-05-06T05:30:01.827Z,101745.38
2023-05-06T05:32:28.359Z,101744.19
2023-05-06T05:34:55.035Z,101744.41
2023-05-06T05:37:21.530Z,101742.56
2023-05-06T05:39:48.155Z,101740.22
2023-05-06T05:42:14.608Z,101738.97
2023-05-06T05:44:41.050Z,101739.41
2023-05-06T05:47:07.482Z,101746.88
2023-05-06T05:49:33.938Z,101744.06
2023-05-06T05:52:00.439Z,101750.03
2023-05-06T05:54:27.077Z,101747.78
2023-05-06T05:56:53.671Z,101746.78
2023-05-06T05:59:20.037Z,101745.66
2023-05-06T06:01:46.457Z,101754.50
2023-05-06T06:04:13.019Z,101751.13
2023-05-06T06:06:39.501Z,101750.47
2023-05-06T06:09:06.512Z,101746.72
2023-05-06T06:11:33.213Z,101750.47
2023-05-06T06:13:59.648Z,101753.94
2023-05-06T06:16:26.129Z,101743.22
2023-05-06T06:18:53.724Z,101745.13
2023-05-06T06:21:20.341Z,101751.00
2023-05-06T06:23:47.113Z,101756.00
2023-05-06T06:26:13.556Z,101753.59
2023-05-06T06:28:40.061Z,101752.38
2023-05-06T06:31:06.551Z,101754.50
2023-05-06T06:33:33.075Z,101750.41
2023-05-06T06:35:59.754Z,101755.94
2023-05-06T06:38:26.202Z,101754.50
2023-05-06T06:40:52.778Z,101749.84
2023-05-06T06:43:20.093Z,101758.31
2023-05-06T06:45:50.008Z,101762.03
2023-05-06T06:48:16.954Z,101762.34
2023-05-06T06:50:43.748Z,101767.88
2023-05-06T06:53:10.457Z,101767.19
2023-05-06T06:55:36.844Z,101768.16
2023-05-06T06:58:03.285Z,101772.13
2023-05-06T07:00:29.709Z,101772.59
2023-05-06T07:02:56.220Z,101774.38
2023-05-06T07:05:22.957Z,101770.78
2023-05-06T07:07:49.330Z,101775.25
2023-05-06T07:10:15.910Z,101765.28
2023-05-06T07:12:42.375Z,101764.00
2023-05-06T07:15:09.436Z,101766.09
2023-05-06T07:17:36.237Z,101768.38
2023-05-06T07:20:02.836Z,101773.88
2023-05-06T07:22:29.491Z,101775.78
2023-05-06T07:24:55.980Z,101780.56
2023-05-06T07:27:24.082Z,101784.09
2023-05-06T07:29:50.890Z,101784.69
2023-05-06T07:32:17.615Z,101785.56
2023-05-06T07:34:44.217Z,101783.75
2023-05-06T07:37:10.649Z,101777.78
2023-05-06T07:39:37.128Z,101773.88
2023-05-06T07:42:03.622Z,101777.69
2023-05-06T07:44:29.974Z,101773.91
2023-05-06T07:46:56.762Z,101779.66
2023-05-06T07:49:24.110Z,101784.22
2023-05-06T07:51:50.594Z,101787.84
2023-05-06T07:54:17.082Z,101776.78
2023-05-06T07:56:44.082Z,101785.03
2023-05-06T07:59:10.608Z,101784.97
2023-05-06T08:01:37.288Z,101784.56
2023-05-06T08:04:04.109Z,101785.19
2023-05-06T08:06:30.745Z,101784.06
2023-05-06T08:08:57.510Z,101784.44
2023-05-06T08:11:23.952Z,101796.66
2023-05-06T08:13:50.549Z,101792.03
2023-05-06T08:16:17.479Z,101790.47
2023-05-06T08:18:43.903Z,101793.66
2023-05-06T08:21:10.964Z,101789.38
2023-05-06T08:23:37.800Z,101790.16
2023-05-06T08:26:04.528Z,101789.75
2023-05-06T08:28:31.513Z,101799.38
2023-05-06T08:30:58.079Z,101795.97
2023-05-06T08:33:24.453Z,101799.16
2023-05-06T08:35:51.018Z,101797.75
2023-05-06T08:38:17.418Z,101794.78
2023-05-06T08:40:44.896Z,101792.41
2023-05-06T08:43:13.566Z,101790.31
2023-05-06T08:45:41.803Z,101795.84
2023-05-06T08:48:09.222Z,101796.97
2023-05-06T08:50:40.835Z,101786.19
2023-05-06T08:53:07.549Z,101794.06
2023-05-06T08:55:34.165Z,101794.09
2023-05-06T08:58:01.133Z,101786.25
2023-05-06T09:00:27.648Z,101790.13
2023-05-06T09:02:54.323Z,101791.72
2023-05-06T09:05:21.114Z,101788.28
2023-05-06T09:07:47.747Z,101782.94
2023-05-06T09:10:14.713Z,101786.84
2023-05-06T09:12:41.508Z,101780.91
2023-05-06T09:15:09.720Z,101782.81
2023-05-06T09:17:36.795Z,101783.34
2023-05-06T09:20:03.841Z,101788.38
2023-05-06T09:22:31.333Z,101773.06
2023-05-06T09:24:58.789Z,101778.53
2023-05-06T09:27:31.274Z,101779.44
2023-05-06T09:30:05.271Z,101775.19
2023-05-06T09:32:32.424Z,101780.94
2023-05-06T09:34:58.876Z,101771.84
2023-05-06T09:37:28.256Z,101765.38
2023-05-06T09:39:56.533Z,101766.81
2023-05-06T09:42:27.837Z,101767.63
2023-05-06T09:44:58.162Z,101766.56
2023-05-06T09:47:31.165Z,101766.47
2023-05-06T09:50:04.519Z,101764.84
2023-05-06T09:52:31.684Z,101755.38
2023-05-06T09:54:59.271Z,101754.81
2023-05-06T09:57:26.022Z,101753.16
2023-05-06T09:59:54.197Z,101750.53
2023-05-06T10:02:23.604Z,101751.22
2023-05-06T10:04:51.151Z,101757.09
2023-05-06T10:07:23.476Z,101760.56
2023-05-06T10:09:51.402Z,101760.03
2023-05-06T10:12:20.117Z,101754.28
2023-05-06T10:14:47.425Z,101751.47
2023-05-06T10:17:14.334Z,101751.34
2023-05-06T10:19:45.003Z,101749.81
2023-05-06T10:22:30.402Z,101744.16
2023-05-06T10:25:05.752Z,101744.34
2023-05-06T10:27:41.129Z,101746.53
2023-05-06T10:30:10.318Z,101742.81
2023-05-06T10:32:41.921Z,101742.13
2023-05-06T10:35:20.439Z,101739.69
2023-05-06T10:37:49.074Z,101739.94
2023-05-06T10:40:15.846Z,101735.41
2023-05-06T10:42:42.343Z,101736.22
2023-05-06T10:45:19.544Z,101728.09
2023-05-06T10:47:58.567Z,101724.09
2023-05-06T10:50:39.171Z,101722.97
2023-05-06T10:53:11.831Z,101723.84
2023-05-06T10:55:38.436Z,101724.13
2023-05-06T10:58:19.006Z,101719.03
2023-05-06T11:00:55.565Z,101723.97
2023-05-06T11:03:23.840Z,101713.94
2023-05-06T11:05:52.090Z,101725.69
2023-05-06T11:08:23.608Z,101718.13
2023-05-06T11:10:50.131Z,101725.41
2023-05-06T11:13:27.547Z,101721.88
2023-05-06T11:15:58.291Z,101721.50
2023-05-06T11:18:24.675Z,101719.97
2023-05-06T11:21:12.586Z,101724.38
2023-05-06T11:23:42.149Z,101717.53
2023-05-06T11:26:09.509Z,101715.25
2023-05-06T11:28:36.250Z,101716.91
2023-05-06T11:31:03.182Z,101714.75
2023-05-06T11:33:34.143Z,101720.56
2023-05-06T11:36:01.622Z,101712.50
2023-05-06T11:38:49.610Z,101714.84
2023-05-06T11:41:17.240Z,101708.50
2023-05-06T11:43:53.672Z,101707.50
2023-05-06T11:46:21.961Z,101706.94
2023-05-06T11:48:48.815Z,101699.81
2023-05-06T11:51:16.270Z,101697.22
2023-05-06T11:53:42.879Z,101706.06
2023-05-06T11:56:09.321Z,101708.91
2023-05-06T11:58:36.213Z,101698.66
2023-05-06T12:01:04.445Z,101702.22
2023-05-06T12:03:32.803Z,101706.72
2023-05-06T12:06:00.204Z,101696.63
2023-05-06T12:08:34.965Z,101712.72
2023-05-06T12:11:03.760Z,101710.97
2023-05-06T12:13:30.855Z,101705.44
2023-05-06T12:16:01.540Z,101710.84
2023-05-06T12:18:28.809Z,101702.88
2023-05-06T12:21:00.581Z,101704.91
2023-05-06T12:23:27.220Z,101704.66
2023-05-06T12:26:02.631Z,101705.34
2023-05-06T12:28:30.886Z,101703.19
2023-05-06T12:30:57.380Z,101700.03
2023-05-06T12:33:23.815Z,101701.91
2023-05-06T12:35:51.630Z,101702.56
2023-05-06T12:38:18.307Z,101706.00
2023-05-06T12:40:52.685Z,101698.81
2023-05-06T12:43:19.212Z,101700.19
2023-05-06T12:46:05.910Z,101700.38
2023-05-06T12:48:32.507Z,101689.97
2023-05-06T12:50:58.988Z,101692.38
2023-05-06T12:53:34.136Z,101693.44
2023-05-06T12:56:00.936Z,101686.50
2023-05-06T12:58:27.411Z,101701.19
2023-05-06T13:00:53.973Z,101690.00
2023-05-06T13:03:21.275Z,101694.34
2023-05-06T13:05:50.108Z,101689.00
2023-05-06T13:08:16.639Z,101690.25
2023-05-06T13:10:43.241Z,101690.63
2023-05-06T13:13:09.675Z,101696.78
2023-05-06T13:15:36.378Z,101698.19
2023-05-06T13:18:03.315Z,101684.69
2023-05-06T13:20:30.443Z,101688.28
2023-05-06T13:22:56.905Z,101687.91
2023-05-06T13:25:23.409Z,101690.97
2023-05-06T13:27:49.947Z,101689.72
2023-05-06T13:30:17.030Z,101691.00
2023-05-06T13:32:43.600Z,101684.31
2023-05-06T13:35:10.467Z,101687.72
2023-05-06T13:37:37.101Z,101691.41
2023-05-06T13:40:04.862Z,101686.38
2023-05-06T13:42:31.258Z,101674.31
2023-05-06T13:44:57.671Z,101671.72
2023-05-06T13:47:24.305Z,101662.50
2023-05-06T13:49:51.176Z,101665.88
2023-05-06T13:52:17.648Z,101659.38
2023-05-06T13:54:44.920Z,101657.84
2023-05-06T13:57:11.507Z,101665.06
2023-05-06T13:59:37.897Z,101655.94
2023-05-06T14:02:08.212Z,101658.28
2023-05-06T14:04:36.184Z,101661.78
2023-05-06T14:07:02.700Z,101652.63
2023-05-06T14:09:29.218Z,101646.72
2023-05-06T14:11:55.777Z,101651.72
2023-05-06T14:14:22.184Z,101639.69
2023-05-06T14:16:48.634Z,101642.97
2023-05-06T14:19:15.125Z,101647.00
2023-05-06T14:21:41.573Z,101639.19
2023-05-06T14:24:08.368Z,101641.34
2023-05-06T14:26:34.825Z,101636.72
2023-05-06T14:29:01.375Z,101639.16
2023-05-06T14:31:29.522Z,101633.28
2023-05-06T14:33:56.630Z,101635.47
2023-05-06T14:36:29.572Z,101635.91
2023-05-06T14:38:56.168Z,101625.19
2023-05-06T14:41:22.798Z,101633.56
2023-05-06T14:43:49.326Z,101632.75
2023-05-06T14:46:16.328Z,101633.75
2023-05-06T14:48:43.429Z,101625.47
2023-05-06T14:51:10.077Z,101621.81
2023-05-06T14:53:36.612Z,101629.53
2023-05-06T14:56:03.247Z,101625.88
2023-05-06T14:58:29.830Z,101629.75
2023-05-06T15:00:57.110Z,101627.69
2023-05-06T15:03:23.648Z,101622.88
2023-05-06T15:05:51.068Z,101634.03
2023-05-06T15:08:17.658Z,101626.50
2023-05-06T15:10:44.416Z,101623.22
2023-05-06T15:13:11.005Z,101626.00
2023-05-06T15:15:37.565Z,101631.53
2023-05-06T15:18:13.605Z,101626.63
2023-05-06T15:20:40.077Z,101614.34
2023-05-06T15:23:06.570Z,101625.03
2023-05-06T15:25:36.025Z,101616.66
2023-05-06T15:28:04.602Z,101626.22
2023-05-06T15:30:31.078Z,101627.97
2023-05-06T15:32:57.484Z,101619.63
2023-05-06T15:35:24.049Z,101621.09
2023-05-06T15:37:55.845Z,101621.47
2023-05-06T15:40:25.518Z,101616.81
2023-05-06T15:42:52.473Z,101614.75
2023-05-06T15:45:19.802Z,101622.97
2023-05-06T15:47:48.056Z,101624.31
2023-05-06T15:50:25.199Z,101620.84
2023-05-06T15:52:58.777Z,101616.50
2023-05-06T15:55:26.608Z,101610.84
2023-05-06T15:57:54.567Z,101617.97
2023-05-06T16:00:21.951Z,101608.06
2023-05-06T16:02:48.687Z,101626.22
2023-05-06T16:05:15.790Z,101613.19
2023-05-06T16:07:42.457Z,101624.31
2023-05-06T16:10:08.921Z,101628.06
2023-05-06T16:12:35.631Z,101630.97
2023-05-06T16:15:03.357Z,101627.06
2023-05-06T16:17:30.402Z,101629.34
2023-05-06T16:19:56.934Z,101629.25
2023-05-06T16:22:23.406Z,101633.13
2023-05-06T16:24:49.827Z,101623.09
2023-05-06T16:27:16.427Z,101628.63
2023-05-06T16:29:43.037Z,101620.44
2023-05-06T16:32:09.554Z,101627.88
2023-05-06T16:34:38.964Z,101621.78
2023-05-06T16:37:07.911Z,101622.28
2023-05-06T16:39:34.440Z,101620.34
2023-05-06T16:42:01.842Z,101611.75
2023-05-06T16:44:29.311Z,101619.72
2023-05-06T16:46:56.083Z,101614.66
2023-05-06T16:49:22.566Z,101616.28
2023-05-06T16:51:49.108Z,101620.25
2023-05-06T16:54:15.657Z,101626.63
2023-05-06T16:59:22.754Z,101622.06
2023-05-06T17:01:50.396Z,101621.00
2023-05-06T17:04:20.479Z,101628.13
2023-05-06T17:06:46.986Z,101618.31
2023-05-06T17:09:13.472Z,101621.50
2023-05-06T17:11:39.845Z,101620.31
2023-05-06T17:14:06.520Z,101614.81
2023-05-06T17:16:33.045Z,101614.84
2023-05-06T17:18:59.560Z,101628.25
2023-05-06T17:21:26.849Z,101617.22
2023-05-06T17:23:54.477Z,101623.19
2023-05-06T17:26:21.693Z,101622.06
2023-05-06T17:28:48.316Z,101617.31
2023-05-06T17:31:15.689Z,101615.00
2023-05-06T17:33:42.444Z,101618.59
2023-05-06T17:36:09.148Z,101615.84
2023-05-06T17:38:35.825Z,101613.94
2023-05-06T17:41:02.211Z,101621.84
2023-05-06T17:43:28.878Z,101622.25
2023-05-06T17:45:56.123Z,101622.31
2023-05-06T17:48:23.004Z,101637.38
2023-05-06T17:50:49.414Z,101638.69
2023-05-06T17:53:16.101Z,101641.03
2023-05-06T17:55:42.829Z,101649.31
2023-05-06T17:58:09.290Z,101651.66
2023-05-06T18:00:36.853Z,101648.03
2023-05-06T18:03:03.379Z,101653.47
2023-05-06T18:05:30.137Z,101667.16
2023-05-06T18:07:56.700Z,101654.16
2023-05-06T18:10:23.144Z,101670.88
2023-05-06T18:12:49.960Z,101668.81
2023-05-06T18:15:16.757Z,101672.72
2023-05-06T18:17:43.337Z,101668.66
2023-05-06T18:20:10.317Z,101669.84
2023-05-06T18:22:37.152Z,101669.06
2023-05-06T18:25:04.380Z,101676.47
2023-05-06T18:27:32.302Z,101678.34
2023-05-06T18:29:59.537Z,101680.25
2023-05-06T18:32:26.108Z,101672.78
2023-05-06T18:34:52.649Z,101681.78
2023-05-06T18:37:19.083Z,101677.84
2023-05-06T18:39:45.840Z,101673.84
2023-05-06T18:42:12.221Z,101673.47
2023-05-06T18:44:38.648Z,101678.84
2023-05-06T18:47:05.811Z,101679.63
2023-05-06T18:49:32.255Z,101670.59
2023-05-06T18:51:58.855Z,101670.94
2023-05-06T18:54:25.353Z,101675.91
2023-05-06T18:56:51.897Z,101673.16
2023-05-06T18:59:21.736Z,101676.25
2023-05-06T19:01:48.458Z,101675.47
2023-05-06T19:04:15.149Z,101687.53
2023-05-06T19:06:41.792Z,101698.06
2023-05-06T19:09:08.335Z,101698.84
2023-05-06T19:11:35.043Z,101697.69
2023-05-06T19:14:01.568Z,101698.06
2023-05-06T19:16:28.050Z,101700.38
2023-05-06T19:18:54.494Z,101701.09
2023-05-06T19:21:21.694Z,101694.25
2023-05-06T19:23:48.219Z,101702.09
2023-05-06T19:26:14.815Z,101704.09
2023-05-06T19:28:41.369Z,101708.81
2023-05-06T19:31:11.886Z,101704.88
2023-05-06T19:33:39.221Z,101710.06
2023-05-06T19:36:06.403Z,101709.34
2023-05-06T19:38:33.031Z,101716.31
2023-05-06T19:40:59.526Z,101705.28
2023-05-06T19:43:26.001Z,101704.06
2023-05-06T19:45:52.611Z,101709.13
2023-05-06T19:48:19.707Z,101709.88
2023-05-06T19:50:46.328Z,101703.69
2023-05-06T19:53:12.811Z,101699.72
2023-05-06T19:55:39.245Z,101701.28
2023-05-06T19:58:05.980Z,101707.13
2023-05-06T20:00:32.521Z,101703.97
2023-05-06T20:03:00.207Z,101710.94
2023-05-06T20:05:32.023Z,101703.94
2023-05-06T20:07:59.966Z,101706.25
2023-05-06T20:10:28.021Z,101702.66
2023-05-06T20:12:57.335Z,101712.03
2023-05-06T20:15:24.484Z,101704.22
2023-05-06T20:17:50.928Z,101703.00
2023-05-06T20:20:17.678Z,101710.38
2023-05-06T20:22:44.138Z,101702.19
2023-05-06T20:25:13.028Z,101703.72
2023-05-06T20:27:39.787Z,101704.53
2023-05-06T20:30:08.268Z,101706.06
2023-05-06T20:32:35.460Z,101704.50
2023-05-06T20:35:01.982Z,101706.06
2023-05-06T20:37:29.403Z,101699.44
2023-05-06T20:39:56.177Z,101702.19
2023-05-06T20:42:22.781Z,101707.13
2023-05-06T20:44:51.030Z,101708.66
2023-05-06T20:47:18.287Z,101707.50
2023-05-06T20:49:44.873Z,101696.94
2023-05-06T20:52:14.509Z,101705.13
2023-05-06T20:54:45.259Z,101705.50
2023-05-06T20:57:14.080Z,101704.66
2023-05-06T20:59:40.800Z,101710.50
2023-05-06T21:02:07.274Z,101703.69
2023-05-06T21:04:33.872Z,101714.19
2023-05-06T21:07:00.620Z,101705.50
2023-05-06T21:09:29.148Z,101706.59
2023-05-06T21:11:56.355Z,101705.34
2023-05-06T21:14:24.746Z,101703.03
2023-05-06T21:16:52.414Z,101703.41
2023-05-06T21:19:19.693Z,101692.13
2023-05-06T21:21:46.178Z,101693.28
2023-05-06T21:24:13.124Z,101692.13
2023-05-06T21:26:40.099Z,101692.47
2023-05-06T21:29:06.694Z,101690.59
2023-05-06T21:31:33.158Z,101684.78
2023-05-06T21:33:59.867Z,101681.25
2023-05-06T21:36:27.131Z,101678.09
2023-05-06T21:39:05.593Z,101685.16
2023-05-06T21:41:31.955Z,101687.50
2023-05-06T21:43:58.456Z,101680.78
2023-05-06T21:46:25.057Z,101683.00
2023-05-06T21:48:52.003Z,101684.81
2023-05-06T21:51:18.388Z,101689.72
2023-05-06T21:53:49.194Z,101688.81
2023-05-06T21:56:16.319Z,101696.16
2023-05-06T21:58:42.798Z,101697.75
2023-05-06T22:01:09.447Z,101697.56
2023-05-06T22:03:36.113Z,101713.00
2023-05-06T22:06:05.982Z,101700.09
2023-05-06T22:08:32.494Z,101703.47
2023-05-06T22:10:58.936Z,101697.53
2023-05-06T22:13:26.713Z,101694.31
2023-05-06T22:15:53.864Z,101696.56
2023-05-06T22:18:20.441Z,101699.31
2023-05-06T22:20:49.269Z,101706.19
2023-05-06T22:23:15.760Z,101702.63
2023-05-06T22:25:42.135Z,101705.03
2023-05-06T22:28:08.522Z,101702.69
2023-05-06T22:30:35.066Z,101697.72
2023-05-06T22:33:01.760Z,101698.50
2023-05-06T22:35:28.393Z,101702.03
2023-05-06T22:37:54.760Z,101700.91
2023-05-06T22:40:21.316Z,101703.66
2023-05-06T22:42:48.356Z,101697.13
2023-05-06T22:45:14.773Z,101706.59
2023-05-06T22:47:41.260Z,101709.31
2023-05-06T22:50:08.111Z,101710.47
2023-05-06T22:52:34.688Z,101712.47
2023-05-06T22:55:01.161Z,101711.31
2023-05-06T22:57:27.658Z,101710.47
2023-05-06T22:59:54.287Z,101714.25
2023-05-06T23:02:20.816Z,101709.84
2023-05-06T23:04:47.302Z,101709.34
2023-05-06T23:07:14.198Z,101714.78
2023-05-06T23:09:40.806Z,101710.50
2023-05-06T23:12:07.772Z,101712.06
2023-05-06T23:14:34.299Z,101709.34
2023-05-06T23:17:00.730Z,101710.38
2023-05-06T23:19:27.227Z,101712.22
2023-05-06T23:21:53.768Z,101708.22
2023-05-06T23:24:20.169Z,101702.59
2023-05-06T23:26:46.608Z,101716.63
2023-05-06T23:29:13.130Z,101712.72
2023-05-06T23:31:39.721Z,101716.16
2023-05-06T23:34:06.446Z,101718.81
2023-05-06T23:36:34.037Z,101715.69
2023-05-06T23:39:00.764Z,101711.69
2023-05-06T23:41:27.659Z,101707.72
2023-05-06T23:43:54.231Z,101713.25
2023-05-06T23:46:20.878Z,101717.13
2023-05-06T23:48:47.353Z,101717.84
2023-05-06T23:51:13.783Z,101717.47
2023-05-06T23:53:40.850Z,101719.47
2023-05-06T23:56:07.491Z,101717.91
2023-05-06T23:58:34.044Z,101716.66
